Time;durP1;ratioP1;P1;durP2;ratioP2;P2;SDS_P1;SDS_P2;PMS_P1;PMS_P2;Temp;Humidity;BMP_temperature;BMP_pressure;BME280_temperature;BME280_humidity;BME280_pressure;Samples;Min_cycle;Max_cycle;Signal;HPM_P1;HPM_P2
2020/12/12 00:02:34;;;;;;;21.35;11.20;;;;;;;4.73;100.00;93587.69;10486973;28;20040;-74
2020/12/12 00:07:34;;;;;;;26.10;13.03;;;;;;;4.73;100.00;93585.03;10496664;28;20036;-73
2020/12/12 00:12:35;;;;;;;25.70;11.83;;;;;;;4.82;100.00;93575.47;10528909;28;20285;-73
2020/12/12 00:17:36;;;;;;;21.55;11.82;;;;;;;4.89;100.00;93576.00;10528206;28;20298;-73
2020/12/12 00:22:36;;;;;;;27.37;11.83;;;;;;;4.79;100.00;93570.69;10529929;28;20491;-73
2020/12/12 00:27:36;;;;;;;23.10;11.57;;;;;;;4.78;100.00;93563.75;10528951;28;20032;-73
2020/12/12 00:32:37;;;;;;;23.48;12.40;;;;;;;4.86;100.00;93563.22;10528300;28;20293;-73
2020/12/12 00:37:37;;;;;;;20.00;11.20;;;;;;;4.96;100.00;93562.44;10519541;28;20024;-73
2020/12/12 00:42:40;;;;;;;21.92;12.15;;;;;;;5.01;100.00;93557.09;10486486;28;20051;-73
2020/12/12 00:47:40;;;;;;;24.15;11.77;;;;;;;5.17;100.00;93549.09;10486862;28;20391;-73
2020/12/12 00:52:41;;;;;;;27.75;12.65;;;;;;;5.25;100.00;93541.34;10485683;28;20037;-73
2020/12/12 00:57:41;;;;;;;24.20;11.88;;;;;;;5.33;100.00;93541.88;10485239;28;20035;-73
2020/12/12 01:02:41;;;;;;;24.48;12.52;;;;;;;5.31;100.00;93540.28;10486440;28;20036;-73
2020/12/12 01:07:42;;;;;;;35.20;16.03;;;;;;;5.26;100.00;93542.16;10485877;28;20425;-73
2020/12/12 01:12:43;;;;;;;35.45;17.38;;;;;;;5.09;100.00;93537.94;10486159;28;20419;-73
2020/12/12 01:17:43;;;;;;;39.67;18.63;;;;;;;4.85;100.00;93535.00;10485000;28;20040;-73
2020/12/12 01:22:44;;;;;;;33.08;17.30;;;;;;;4.92;100.00;93529.41;10512066;28;20301;-73
2020/12/12 01:27:44;;;;;;;34.15;17.17;;;;;;;4.80;100.00;93527.03;10527358;28;20040;-73
2020/12/12 01:32:45;;;;;;;35.38;17.63;;;;;;;4.75;100.00;93519.03;10526845;28;20044;-73
2020/12/12 01:37:46;;;;;;;37.97;19.85;;;;;;;4.80;100.00;93508.41;10526907;28;20093;-74
2020/12/12 01:42:46;;;;;;;47.20;20.08;;;;;;;4.86;100.00;93507.31;10526901;28;20147;-74
2020/12/12 01:47:47;;;;;;;37.67;20.47;;;;;;;4.84;100.00;93500.66;10525572;28;20024;-74
2020/12/12 01:52:51;;;;;;;40.40;19.00;;;;;;;4.87;100.00;93494.78;10526644;28;20657;-74
2020/12/12 01:57:52;;;;;;;37.40;20.55;;;;;;;4.79;100.00;93494.28;10526357;28;20028;-73
2020/12/12 02:02:56;;;;;;;28.95;15.10;;;;;;;4.71;100.00;93486.81;10526987;28;20828;-74
2020/12/12 02:07:56;;;;;;;32.22;14.57;;;;;;;4.65;100.00;93489.75;10527074;28;20044;-73
2020/12/12 02:12:58;;;;;;;25.83;14.27;;;;;;;4.53;100.00;93496.13;10526544;28;20039;-73
2020/12/12 02:17:59;;;;;;;27.85;15.40;;;;;;;4.55;100.00;93486.03;10524999;28;20506;-73
2020/12/12 02:23:00;;;;;;;32.35;16.20;;;;;;;4.58;100.00;93479.41;10526587;28;20546;-74
2020/12/12 02:28:01;;;;;;;32.05;17.20;;;;;;;4.59;100.00;93462.34;10514153;28;20119;-73
2020/12/12 02:33:01;;;;;;;34.42;20.10;;;;;;;4.65;100.00;93465.81;10532597;28;20483;-73
2020/12/12 02:38:02;;;;;;;26.17;14.73;;;;;;;4.56;100.00;93462.88;10533460;28;20028;-73
2020/12/12 02:43:02;;;;;;;28.30;13.82;;;;;;;4.59;100.00;93455.19;10533453;28;20115;-72
2020/12/12 02:48:03;;;;;;;32.28;15.45;;;;;;;4.52;100.00;93459.97;10533484;28;20044;-72
2020/12/12 02:53:04;;;;;;;31.15;15.20;;;;;;;4.59;100.00;93452.53;10533164;28;20461;-72
2020/12/12 02:58:04;;;;;;;29.58;14.40;;;;;;;4.50;100.00;93456.78;10533347;28;20540;-73
2020/12/12 03:03:04;;;;;;;24.02;13.98;;;;;;;4.39;100.00;93447.19;10533128;28;20035;-73
2020/12/12 03:08:05;;;;;;;29.25;14.18;;;;;;;4.37;100.00;93444.81;10532308;28;20616;-73
2020/12/12 03:13:05;;;;;;;21.75;13.48;;;;;;;4.44;100.00;93449.88;10531408;28;20109;-73
2020/12/12 03:18:05;;;;;;;27.23;13.77;;;;;;;4.31;100.00;93453.84;10568148;28;20082;-73
2020/12/12 03:23:07;;;;;;;29.63;13.10;;;;;;;4.25;100.00;93446.94;10556084;28;20134;-72
2020/12/12 03:28:07;;;;;;;21.70;12.52;;;;;;;4.19;100.00;93432.03;10574197;28;20726;-73
2020/12/12 03:33:08;;;;;;;18.80;10.95;;;;;;;4.15;100.00;93433.63;10511416;28;20178;-72
2020/12/12 03:38:08;;;;;;;13.32;8.93;;;;;;;4.07;100.00;93429.63;10504338;28;20029;-73
2020/12/12 03:43:08;;;;;;;13.00;8.00;;;;;;;3.98;100.00;93429.34;10471833;28;20049;-73
2020/12/12 03:48:09;;;;;;;11.93;7.23;;;;;;;4.02;100.00;93427.78;10488256;28;20032;-73
2020/12/12 03:53:09;;;;;;;14.15;8.82;;;;;;;3.99;100.00;93424.81;10488084;28;20044;-72
2020/12/12 03:58:10;;;;;;;12.25;7.25;;;;;;;3.96;100.00;93414.72;10469786;28;20131;-73
2020/12/12 04:03:11;;;;;;;10.75;6.25;;;;;;;4.04;100.00;93415.00;10485304;28;20067;-72
2020/12/12 04:08:12;;;;;;;11.23;6.43;;;;;;;4.03;100.00;93407.28;10486616;28;20097;-73
2020/12/12 04:13:12;;;;;;;10.18;6.32;;;;;;;4.11;100.00;93401.44;10488304;28;20112;-77
2020/12/12 04:18:12;;;;;;;10.00;7.00;;;;;;;4.30;100.00;93407.03;10524609;28;20052;-76
2020/12/12 04:23:13;;;;;;;13.75;7.85;;;;;;;4.31;100.00;93395.31;10557238;28;20534;-76
2020/12/12 04:28:14;;;;;;;13.10;7.07;;;;;;;4.27;100.00;93394.28;10569886;28;20053;-77
2020/12/12 04:33:14;;;;;;;15.70;8.17;;;;;;;4.36;100.00;93392.66;10569259;28;20036;-76
2020/12/12 04:38:15;;;;;;;10.82;6.47;;;;;;;4.39;100.00;93394.78;10568773;28;20281;-76
2020/12/12 04:43:15;;;;;;;7.73;4.43;;;;;;;4.30;100.00;93385.78;10569406;28;20046;-76
2020/12/12 04:48:16;;;;;;;3.92;2.67;;;;;;;4.18;100.00;93371.94;10567939;28;20414;-75
2020/12/12 04:53:19;;;;;;;8.93;3.47;;;;;;;3.99;100.00;93375.13;10568779;28;20043;-75
2020/12/12 04:58:24;;;;;;;5.18;2.75;;;;;;;3.82;100.00;93370.06;10551509;28;20042;-75
2020/12/12 05:03:26;;;;;;;4.07;2.80;;;;;;;3.68;100.00;93361.81;10569200;28;20063;-75
2020/12/12 05:08:26;;;;;;;4.03;2.45;;;;;;;3.57;100.00;93363.66;10569705;28;20032;-75
2020/12/12 05:13:31;;;;;;;3.20;2.53;;;;;;;3.46;100.00;93359.41;10556181;27;20528;-76
2020/12/12 05:18:33;;;;;;;3.08;2.30;;;;;;;3.34;100.00;93353.53;10542994;28;20378;-76
2020/12/12 05:23:34;;;;;;;4.22;2.33;;;;;;;3.29;100.00;93358.81;10546740;28;20024;-75
2020/12/12 05:28:34;;;;;;;5.30;2.38;;;;;;;3.28;100.00;93350.06;10549608;28;20039;-75
2020/12/12 05:33:35;;;;;;;5.30;1.85;;;;;;;3.40;100.00;93352.47;10568961;28;20032;-75
2020/12/12 05:38:36;;;;;;;1.67;1.55;;;;;;;3.51;100.00;93350.63;10556555;28;20034;-76
2020/12/12 05:43:37;;;;;;;3.20;1.70;;;;;;;3.54;100.00;93352.75;10538465;28;20529;-76
2020/12/12 05:48:37;;;;;;;1.42;1.05;;;;;;;3.62;100.00;93340.84;10526470;28;20055;-76
2020/12/12 05:53:43;;;;;;;3.13;1.38;;;;;;;3.48;100.00;93343.97;10525854;28;20090;-75
2020/12/12 05:58:47;;;;;;;2.28;1.40;;;;;;;3.47;100.00;93349.56;10542387;28;20086;-76
2020/12/12 06:04:04;;;;;;;3.10;1.33;;;;;;;3.42;100.00;93337.88;10532840;28;20471;-75
2020/12/12 06:09:08;;;;;;;3.20;1.58;;;;;;;3.30;100.00;93333.88;10565477;28;20402;-72
2020/12/12 06:14:09;;;;;;;7.03;1.85;;;;;;;3.22;100.00;93332.50;10550584;28;20048;-74
2020/12/12 06:19:09;;;;;;;5.07;2.53;;;;;;;3.26;100.00;93328.28;10516970;28;20035;-75
2020/12/12 06:24:12;;;;;;;2.53;2.13;;;;;;;3.38;100.00;93336.78;10541744;28;20035;-76
2020/12/12 06:29:14;;;;;;;3.72;1.85;;;;;;;3.51;100.00;93332.03;10574574;28;20027;-77
2020/12/12 06:34:15;;;;;;;4.28;1.83;;;;;;;3.44;100.00;93328.84;10554633;28;20035;-76
2020/12/12 06:39:22;;;;;;;2.53;1.87;;;;;;;3.44;100.00;93332.28;10553560;28;20032;-77
2020/12/12 06:44:42;;;;;;;2.53;1.70;;;;;;;3.44;100.00;93326.97;10540222;28;20317;-78
2020/12/12 06:50:07;;;;;;;7.53;3.65;;;;;;;3.37;100.00;93321.13;10537056;28;20038;-78
2020/12/12 06:55:11;;;;;;;3.65;1.95;;;;;;;3.41;100.00;93327.50;10574951;28;20414;-77
2020/12/12 07:00:21;;;;;;;3.72;2.28;;;;;;;3.46;100.00;93322.22;10548049;28;20039;-72
2020/12/12 07:05:22;;;;;;;3.30;2.60;;;;;;;3.52;100.00;93323.03;10550337;28;20475;-73
2020/12/12 07:10:23;;;;;;;2.08;1.85;;;;;;;3.61;100.00;93312.66;10571957;28;20087;-73
2020/12/12 07:15:27;;;;;;;2.90;1.90;;;;;;;3.37;100.00;93308.63;10570770;28;20040;-72
2020/12/12 07:20:38;;;;;;;2.38;1.92;;;;;;;3.31;100.00;93303.56;10562220;28;20294;-73
2020/12/12 07:25:38;;;;;;;2.95;1.70;;;;;;;3.30;100.00;93304.66;10564051;28;20082;-73
2020/12/12 07:30:39;;;;;;;3.42;2.20;;;;;;;3.35;100.00;93302.81;10570459;28;20158;-72
2020/12/12 07:35:43;;;;;;;3.15;2.03;;;;;;;3.37;100.00;93297.22;10562251;28;20114;-73
2020/12/12 07:40:43;;;;;;;2.78;1.63;;;;;;;3.24;100.00;93296.69;10556537;27;20170;-73
2020/12/12 07:46:01;;;;;;;4.15;2.63;;;;;;;3.19;100.00;93298.53;10534608;28;20032;-72
2020/12/12 07:51:11;;;;;;;3.58;2.42;;;;;;;3.15;100.00;93292.94;10569371;28;20062;-73
2020/12/12 07:56:15;;;;;;;4.70;2.58;;;;;;;3.38;100.00;93288.22;10571624;28;20538;-73
2020/12/12 08:01:23;;;;;;;5.22;2.95;;;;;;;3.68;100.00;93295.38;10566624;28;20036;-73
2020/12/12 08:06:27;;;;;;;11.27;4.07;;;;;;;3.89;100.00;93295.38;10558750;28;20118;-74
2020/12/12 08:11:27;;;;;;;10.18;3.50;;;;;;;4.05;100.00;93293.53;10570368;28;20038;-73
2020/12/12 08:16:37;;;;;;;5.93;3.10;;;;;;;4.23;100.00;93290.31;10570724;28;20494;-73
2020/12/12 08:21:38;;;;;;;5.25;3.42;;;;;;;4.35;100.00;93297.19;10551736;28;20376;-73
2020/12/12 08:26:38;;;;;;;8.65;4.25;;;;;;;4.51;100.00;93285.44;10548920;28;20050;-73
2020/12/12 08:31:40;;;;;;;14.00;4.68;;;;;;;4.60;100.00;93283.81;10554975;28;20044;-73
2020/12/12 08:36:41;;;;;;;6.97;4.22;;;;;;;4.79;100.00;93291.19;10563539;28;20031;-71
2020/12/12 08:41:42;;;;;;;9.82;5.63;;;;;;;4.81;100.00;93286.38;10568210;28;20045;-73
2020/12/12 08:46:51;;;;;;;6.55;4.07;;;;;;;4.72;100.00;93282.72;10569797;28;20466;-73
2020/12/12 08:51:52;;;;;;;11.48;7.65;;;;;;;4.60;100.00;93283.00;10567479;28;20499;-71
2020/12/12 08:57:07;;;;;;;16.33;9.95;;;;;;;4.46;100.00;93282.78;10569220;28;20031;-72
2020/12/12 09:02:17;;;;;;;15.77;10.20;;;;;;;4.45;100.00;93286.50;10569449;28;20157;-72
2020/12/12 09:07:24;;;;;;;21.85;10.38;;;;;;;4.78;100.00;93278.97;10532377;28;20643;-71
2020/12/12 09:12:24;;;;;;;17.75;8.30;;;;;;;4.92;100.00;93274.63;10527093;28;20061;-71
2020/12/12 09:17:25;;;;;;;12.23;6.50;;;;;;;4.91;100.00;93278.38;10525311;28;20055;-71
2020/12/12 09:22:25;;;;;;;10.80;5.57;;;;;;;5.02;100.00;93270.34;10525435;28;20040;-72
2020/12/12 09:27:26;;;;;;;14.13;6.05;;;;;;;4.77;100.00;93266.72;10525794;28;20941;-72
2020/12/12 09:32:26;;;;;;;11.07;5.90;;;;;;;4.87;100.00;93260.53;10561127;28;20031;-72
2020/12/12 09:37:26;;;;;;;4.80;3.42;;;;;;;4.91;100.00;93262.41;10575826;28;20031;-72
2020/12/12 09:42:27;;;;;;;7.20;4.75;;;;;;;4.91;100.00;93251.75;10548452;28;20093;-72
2020/12/12 09:47:27;;;;;;;9.15;4.22;;;;;;;4.83;100.00;93249.66;10534865;28;20073;-73
2020/12/12 09:52:28;;;;;;;3.10;2.77;;;;;;;4.81;100.00;93246.47;10533917;28;20122;-73
2020/12/12 09:57:28;;;;;;;4.70;2.78;;;;;;;4.70;100.00;93239.59;10534489;28;20290;-73
2020/12/12 10:02:29;;;;;;;7.80;3.67;;;;;;;4.70;100.00;93245.75;10533570;28;20584;-72
2020/12/12 10:07:29;;;;;;;4.95;3.08;;;;;;;4.69;100.00;93240.66;10534158;28;20302;-72
2020/12/12 10:12:29;;;;;;;10.40;4.77;;;;;;;4.83;100.00;93243.53;10533819;28;20043;-73
2020/12/12 10:17:31;;;;;;;11.63;5.07;;;;;;;4.77;100.00;93238.25;10532734;28;20835;-72
2020/12/12 10:22:31;;;;;;;12.07;6.93;;;;;;;4.89;100.00;93240.56;10533421;28;20471;-73
2020/12/12 10:27:33;;;;;;;11.68;4.97;;;;;;;4.96;100.00;93232.28;10532078;28;20036;-72
2020/12/12 10:32:34;;;;;;;8.43;5.70;;;;;;;4.82;100.00;93234.75;10565624;28;20185;-72
2020/12/12 10:37:35;;;;;;;11.40;6.47;;;;;;;4.97;100.00;93231.22;10548562;28;20040;-73
2020/12/12 10:42:36;;;;;;;10.02;6.43;;;;;;;5.04;100.00;93222.94;10549509;28;20031;-73
2020/12/12 10:47:37;;;;;;;11.18;6.00;;;;;;;5.17;100.00;93221.53;10572129;28;20039;-72
2020/12/12 10:52:38;;;;;;;11.35;6.82;;;;;;;5.08;100.00;93215.97;10589006;27;20028;-73
2020/12/12 10:57:39;;;;;;;11.63;4.45;;;;;;;5.12;100.00;93211.69;10557587;28;20031;-73
2020/12/12 11:02:39;;;;;;;8.15;5.75;;;;;;;5.12;100.00;93214.34;10551142;28;20040;-73
2020/12/12 11:07:39;;;;;;;9.93;5.68;;;;;;;4.93;100.00;93225.66;10566933;28;20051;-72
2020/12/12 11:12:40;;;;;;;6.85;4.45;;;;;;;5.05;100.00;93209.34;10560298;28;20134;-73
2020/12/12 11:17:41;;;;;;;6.32;4.63;;;;;;;4.84;100.00;93224.63;10571473;28;20141;-75
2020/12/12 11:22:42;;;;;;;6.95;4.03;;;;;;;5.00;100.00;93225.34;10541349;28;20039;-72
2020/12/12 11:27:45;;;;;;;9.57;5.20;;;;;;;5.14;100.00;93217.53;10514877;28;20032;-72
2020/12/12 11:32:46;;;;;;;9.18;4.65;;;;;;;5.25;100.00;93215.63;10568075;27;20406;-71
2020/12/12 11:38:09;;;;;;;7.28;4.28;;;;;;;5.36;100.00;93222.44;10550295;28;20024;-71
2020/12/12 11:48:09;;;;;;;9.02;3.83;;;;;;;5.81;100.00;93211.69;10554960;28;20031;-72
2020/12/12 11:53:11;;;;;;;3.87;2.87;;;;;;;5.64;100.00;93209.44;10569049;28;20387;-72
2020/12/12 11:58:11;;;;;;;8.02;3.95;;;;;;;5.76;100.00;93209.06;10545006;28;20277;-72
2020/12/12 12:03:12;;;;;;;7.35;4.25;;;;;;;5.60;100.00;93214.53;10529087;28;20032;-73
2020/12/12 12:08:32;;;;;;;8.93;4.53;;;;;;;5.75;100.00;93224.28;10510727;28;20032;-72
2020/12/12 12:13:33;;;;;;;7.13;4.47;;;;;;;5.95;100.00;93222.50;10526794;28;20043;-73
2020/12/12 12:18:34;;;;;;;7.32;4.80;;;;;;;5.79;100.00;93221.81;10520888;28;20043;-73
2020/12/12 12:23:34;;;;;;;9.52;4.78;;;;;;;5.93;100.00;93219.31;10570072;28;20035;-73
2020/12/12 12:28:35;;;;;;;9.00;5.03;;;;;;;5.99;100.00;93212.88;10570444;28;20154;-73
2020/12/12 12:33:35;;;;;;;7.60;4.38;;;;;;;5.82;100.00;93218.63;10551376;28;20300;-73
2020/12/12 12:38:36;;;;;;;5.80;3.70;;;;;;;5.61;100.00;93229.44;10529542;28;20023;-75
2020/12/12 12:43:36;;;;;;;7.28;5.43;;;;;;;5.26;100.00;93220.66;10545807;28;20031;-75
2020/12/12 12:48:37;;;;;;;8.63;4.97;;;;;;;5.24;100.00;93235.31;10554319;27;20039;-76
2020/12/12 12:53:38;;;;;;;10.40;5.53;;;;;;;4.90;100.00;93236.84;10568994;28;20039;-72
2020/12/12 12:58:39;;;;;;;10.38;6.93;;;;;;;4.63;100.00;93237.22;10550697;28;20104;-73
2020/12/12 13:03:39;;;;;;;10.13;6.95;;;;;;;4.40;100.00;93244.78;10568674;28;20486;-73
2020/12/12 13:08:39;;;;;;;13.27;8.23;;;;;;;4.35;100.00;93242.13;10567869;28;20055;-72
2020/12/12 13:13:41;;;;;;;10.07;7.15;;;;;;;4.36;100.00;93248.25;10569044;28;20764;-72
2020/12/12 13:18:47;;;;;;;13.15;6.72;;;;;;;4.33;100.00;93246.13;10568387;28;20426;-72
2020/12/12 13:23:47;;;;;;;11.15;7.05;;;;;;;4.33;100.00;93248.81;10567424;28;20043;-72
2020/12/12 13:33:54;;;;;;;9.85;7.28;;;;;;;4.51;100.00;93258.03;10560320;28;20285;-73
2020/12/12 13:38:56;;;;;;;12.88;6.47;;;;;;;4.60;100.00;93248.44;10526985;28;20039;-73
2020/12/12 13:43:57;;;;;;;10.95;6.07;;;;;;;4.66;100.00;93259.84;10526162;28;20059;-73
2020/12/12 13:48:57;;;;;;;9.57;6.43;;;;;;;4.78;100.00;93249.69;10531558;28;20119;-73
2020/12/12 13:53:59;;;;;;;12.32;7.25;;;;;;;4.92;100.00;93256.00;10539430;28;20117;-73
2020/12/12 13:58:59;;;;;;;9.60;5.82;;;;;;;5.05;100.00;93259.13;10546543;28;20027;-73
2020/12/12 14:03:59;;;;;;;12.27;5.93;;;;;;;5.15;100.00;93267.06;10511009;28;20459;-72
2020/12/12 14:24:58;;;;;;;12.38;6.88;;;;;;;5.17;100.00;93264.91;10534248;28;20048;-73
2020/12/12 14:29:59;;;;;;;10.32;5.85;;;;;;;5.03;100.00;93270.06;10533190;28;20036;-73
2020/12/12 14:34:59;;;;;;;10.38;5.25;;;;;;;5.14;100.00;93274.25;10553453;28;20027;-73
2020/12/12 14:40:00;;;;;;;4.43;3.13;;;;;;;5.08;100.00;93275.34;10575858;28;20501;-73
2020/12/12 14:45:01;;;;;;;5.70;3.67;;;;;;;4.99;100.00;93268.22;10544361;28;20510;-73
2020/12/12 14:50:02;;;;;;;7.95;4.78;;;;;;;4.99;100.00;93282.31;10531619;28;20616;-73
2020/12/12 14:55:03;;;;;;;7.90;2.92;;;;;;;5.04;100.00;93281.53;10562449;28;20043;-72
2020/12/12 15:00:05;;;;;;;7.00;2.58;;;;;;;5.03;100.00;93277.25;10574139;28;20028;-72
2020/12/12 15:05:08;;;;;;;2.90;2.05;;;;;;;4.93;100.00;93283.44;10573361;28;20032;-73
2020/12/12 15:10:10;;;;;;;3.00;1.83;;;;;;;4.84;100.00;93275.19;10534807;28;20032;-73
2020/12/12 15:15:12;;;;;;;2.67;2.10;;;;;;;4.95;100.00;93289.25;10530625;28;20519;-73
2020/12/12 15:20:12;;;;;;;2.95;2.03;;;;;;;5.00;100.00;93299.09;10529931;28;20043;-74
2020/12/12 15:25:15;;;;;;;4.32;2.25;;;;;;;5.03;100.00;93299.34;10530797;28;20117;-74
2020/12/12 15:30:15;;;;;;;4.65;1.95;;;;;;;5.00;100.00;93294.56;10530262;28;20399;-74
2020/12/12 15:35:16;;;;;;;3.03;2.30;;;;;;;4.99;100.00;93300.16;10537079;28;20043;-74
2020/12/12 15:40:16;;;;;;;3.90;1.87;;;;;;;4.93;100.00;93302.06;10529746;28;20028;-74
2020/12/12 15:45:17;;;;;;;5.82;3.08;;;;;;;4.93;100.00;93313.50;10553222;28;20198;-74
2020/12/12 15:50:18;;;;;;;4.35;2.50;;;;;;;4.93;100.00;93320.69;10572108;28;20847;-74
2020/12/12 15:55:20;;;;;;;3.42;2.03;;;;;;;4.93;100.00;93329.47;10572259;28;20035;-74
2020/12/12 16:00:20;;;;;;;6.20;3.72;;;;;;;4.91;100.00;93330.81;10543795;28;20036;-73
2020/12/12 16:05:20;;;;;;;7.00;3.93;;;;;;;4.89;100.00;93330.28;10529138;28;20748;-73
2020/12/12 16:10:21;;;;;;;6.70;3.63;;;;;;;4.91;100.00;93336.13;10529639;28;20040;-74
2020/12/12 16:15:22;;;;;;;8.52;4.85;;;;;;;5.00;100.00;93336.38;10527761;28;20050;-72
2020/12/12 16:20:22;;;;;;;10.52;5.18;;;;;;;4.89;100.00;93346.25;10527472;28;20054;-72
2020/12/12 16:25:23;;;;;;;3.38;2.33;;;;;;;4.99;100.00;93338.22;10509453;28;20043;-73
2020/12/12 16:30:24;;;;;;;3.13;2.35;;;;;;;4.97;100.00;93338.50;10559567;28;20718;-73
2020/12/12 16:35:30;;;;;;;4.32;2.53;;;;;;;5.05;100.00;93339.81;10551959;28;20023;-73
2020/12/12 16:40:31;;;;;;;9.13;5.38;;;;;;;4.97;100.00;93341.16;10584660;28;20408;-73
2020/12/12 16:45:34;;;;;;;10.18;5.40;;;;;;;5.01;100.00;93340.63;10569125;28;20035;-73
2020/12/12 16:50:35;;;;;;;12.93;7.03;;;;;;;4.99;100.00;93348.09;10539807;28;20036;-73
2020/12/12 16:55:35;;;;;;;8.40;4.10;;;;;;;4.94;100.00;93355.03;10526248;28;20034;-73
2020/12/12 17:00:37;;;;;;;8.10;4.47;;;;;;;4.99;100.00;93364.84;10528174;28;20494;-72
2020/12/12 17:05:38;;;;;;;10.38;5.25;;;;;;;5.08;100.00;93379.22;10569578;28;20040;-73
2020/12/12 17:10:38;;;;;;;11.65;6.65;;;;;;;5.07;100.00;93388.25;10569497;28;20065;-73
2020/12/12 17:15:38;;;;;;;21.65;10.27;;;;;;;5.14;100.00;93393.31;10567802;28;20040;-73
2020/12/12 17:20:39;;;;;;;18.60;9.03;;;;;;;4.98;100.00;93397.88;10567050;28;20410;-72
2020/12/12 17:25:41;;;;;;;17.35;10.48;;;;;;;5.07;100.00;93406.91;10567382;28;20450;-73
2020/12/12 17:30:43;;;;;;;50.40;22.27;;;;;;;4.97;100.00;93413.06;10549400;28;20036;-74
2020/12/12 17:35:43;;;;;;;51.30;25.02;;;;;;;4.94;100.00;93421.59;10533755;28;20043;-73
2020/12/12 17:40:44;;;;;;;39.17;20.92;;;;;;;5.08;100.00;93431.66;10537756;28;20032;-73
2020/12/12 17:45:45;;;;;;;47.30;24.50;;;;;;;5.16;100.00;93433.75;10530861;28;20491;-73
2020/12/12 17:50:45;;;;;;;39.95;17.20;;;;;;;5.07;100.00;93422.09;10550187;28;20043;-73
2020/12/12 17:55:46;;;;;;;34.40;16.67;;;;;;;5.14;100.00;93431.38;10570769;28;20126;-72
2020/12/12 18:00:47;;;;;;;39.97;20.92;;;;;;;5.04;100.00;93431.41;10558829;28;20035;-74
2020/12/12 18:05:47;;;;;;;38.50;19.60;;;;;;;5.09;100.00;93441.25;10576036;28;20042;-74
2020/12/12 18:10:49;;;;;;;28.27;15.82;;;;;;;5.01;100.00;93447.13;10551059;28;20046;-74
2020/12/12 18:15:51;;;;;;;39.95;20.75;;;;;;;5.16;100.00;93436.44;10534719;28;20451;-72
2020/12/12 18:20:52;;;;;;;38.97;20.75;;;;;;;5.13;100.00;93440.47;10532921;28;20043;-73
2020/12/12 18:25:53;;;;;;;37.28;20.63;;;;;;;5.14;100.00;93442.03;10532647;28;20047;-72
2020/12/12 18:30:55;;;;;;;32.22;15.30;;;;;;;5.25;100.00;93434.03;10512584;28;20410;-72
2020/12/12 18:35:56;;;;;;;33.85;18.20;;;;;;;5.16;100.00;93435.63;10559358;28;20487;-72
2020/12/12 18:40:57;;;;;;;36.63;19.15;;;;;;;5.10;100.00;93443.63;10575007;28;20107;-73
2020/12/12 18:45:58;;;;;;;31.15;17.23;;;;;;;5.20;100.00;93450.78;10571111;28;20116;-72
2020/12/12 18:51:00;;;;;;;38.13;19.42;;;;;;;5.12;100.00;93452.16;10562596;28;20028;-73
2020/12/12 18:56:01;;;;;;;43.22;21.23;;;;;;;5.14;100.00;93450.00;10572883;28;20474;-73
2020/12/12 19:01:03;;;;;;;42.85;20.90;;;;;;;5.15;100.00;93453.50;10569163;28;20028;-73
2020/12/12 19:06:04;;;;;;;36.08;17.08;;;;;;;5.13;100.00;93452.94;10571448;28;20074;-72
2020/12/12 19:11:04;;;;;;;31.30;15.90;;;;;;;5.19;100.00;93456.41;10524665;28;20605;-72
2020/12/12 19:16:06;;;;;;;37.00;15.77;;;;;;;5.20;100.00;93442.81;10561182;28;20158;-72
2020/12/12 19:21:06;;;;;;;32.67;15.13;;;;;;;5.11;100.00;93444.44;10571911;28;20046;-73
2020/12/12 19:26:09;;;;;;;29.83;15.30;;;;;;;5.15;100.00;93461.47;10549666;28;20057;-73
2020/12/12 19:31:11;;;;;;;39.38;17.95;;;;;;;5.20;100.00;93456.13;10571926;28;20039;-73
2020/12/12 19:36:12;;;;;;;47.70;22.83;;;;;;;5.21;100.00;93459.59;10571383;28;20035;-73
2020/12/12 19:41:12;;;;;;;43.08;20.45;;;;;;;5.16;100.00;93463.06;10547673;28;20493;-73
2020/12/12 19:46:15;;;;;;;41.90;18.75;;;;;;;5.16;100.00;93471.06;10571670;28;20032;-74
2020/12/12 19:51:19;;;;;;;38.97;19.52;;;;;;;5.01;100.00;93477.22;10572754;28;20411;-74
2020/12/12 19:56:20;;;;;;;29.42;15.10;;;;;;;4.93;100.00;93461.78;10571384;28;20035;-72
2020/12/12 20:01:21;;;;;;;35.75;16.10;;;;;;;4.71;100.00;93486.03;10547511;28;20048;-75
2020/12/12 20:06:24;;;;;;;53.42;23.00;;;;;;;4.49;100.00;93483.66;10559934;28;20117;-75
2020/12/12 20:11:25;;;;;;;52.35;23.90;;;;;;;4.27;100.00;93474.84;10546217;28;20042;-75
2020/12/12 20:16:27;;;;;;;48.40;25.63;;;;;;;4.42;100.00;93479.41;10541938;28;20471;-75
2020/12/12 20:21:29;;;;;;;49.90;24.55;;;;;;;4.42;100.00;93467.94;10539240;28;20039;-75
2020/12/12 20:26:30;;;;;;;51.25;23.73;;;;;;;4.55;100.00;93469.25;10566258;28;20178;-76
2020/12/12 20:31:33;;;;;;;43.90;21.70;;;;;;;4.60;100.00;93469.28;10566389;28;20786;-75
2020/12/12 20:36:34;;;;;;;45.50;20.83;;;;;;;4.53;100.00;93477.50;10544516;28;20108;-76
2020/12/12 20:41:36;;;;;;;42.72;21.92;;;;;;;4.59;100.00;93481.78;10567476;28;20035;-75
2020/12/12 20:46:39;;;;;;;42.92;21.02;;;;;;;4.59;100.00;93491.63;10549247;28;20036;-75
2020/12/12 20:51:41;;;;;;;42.47;21.05;;;;;;;4.53;100.00;93513.97;10547487;28;20035;-76
2020/12/12 20:56:42;;;;;;;49.17;22.80;;;;;;;4.30;100.00;93512.63;10542498;28;20031;-75
2020/12/12 21:01:42;;;;;;;42.75;21.70;;;;;;;4.29;100.00;93511.81;10526244;28;20040;-75
2020/12/12 21:06:43;;;;;;;43.10;21.33;;;;;;;4.40;100.00;93513.44;10527326;28;20028;-75
2020/12/12 21:11:43;;;;;;;42.88;20.52;;;;;;;4.52;100.00;93510.53;10526909;28;20114;-75
2020/12/12 21:16:44;;;;;;;40.95;19.55;;;;;;;4.53;100.00;93500.69;10525525;28;20048;-75
2020/12/12 21:21:50;;;;;;;38.78;19.83;;;;;;;4.59;100.00;93513.72;10544542;28;20035;-75
2020/12/12 21:26:54;;;;;;;40.88;20.20;;;;;;;4.65;100.00;93524.34;10534411;28;20043;-75
2020/12/12 21:32:00;;;;;;;31.27;17.77;;;;;;;4.75;100.00;93524.38;10541615;28;20131;-74
2020/12/12 21:37:01;;;;;;;35.90;17.92;;;;;;;4.85;100.00;93529.69;10594827;27;20035;-74
2020/12/12 21:42:01;;;;;;;30.65;17.63;;;;;;;4.83;100.00;93533.66;10558886;28;20042;-75
2020/12/12 21:47:06;;;;;;;32.20;15.07;;;;;;;4.84;100.00;93538.72;10582283;28;20059;-73
2020/12/12 21:52:10;;;;;;;31.13;17.35;;;;;;;4.84;100.00;93536.06;10580913;28;20028;-74
2020/12/12 21:57:11;;;;;;;33.08;16.95;;;;;;;4.73;100.00;93547.78;10567919;28;20051;-74
2020/12/12 22:02:14;;;;;;;33.75;17.10;;;;;;;4.87;100.00;93554.19;10539685;28;20043;-74
2020/12/12 22:07:25;;;;;;;35.53;18.92;;;;;;;4.84;100.00;93541.38;10554989;28;20028;-73
2020/12/12 22:12:26;;;;;;;41.90;18.17;;;;;;;4.90;100.00;93550.19;10545427;28;20038;-73
2020/12/12 22:17:33;;;;;;;35.10;17.95;;;;;;;4.96;100.00;93536.59;10550696;28;20051;-74
2020/12/12 22:23:01;;;;;;;33.15;16.80;;;;;;;4.91;100.00;93541.94;10547890;28;20422;-73
2020/12/12 22:28:05;;;;;;;28.85;15.75;;;;;;;4.88;100.00;93549.66;10537490;28;20037;-73
2020/12/12 22:33:05;;;;;;;30.15;15.57;;;;;;;4.52;100.00;93547.78;10542336;28;20798;-73
2020/12/12 22:43:37;;;;;;;38.23;17.67;;;;;;;4.23;100.00;93539.47;10544644;28;20075;-74
2020/12/12 22:48:38;;;;;;;36.63;17.15;;;;;;;4.33;100.00;93533.38;10564679;28;20040;-74
2020/12/12 22:53:42;;;;;;;34.15;17.17;;;;;;;4.36;100.00;93524.88;10567810;28;20031;-74
2020/12/12 23:04:11;;;;;;;30.48;14.57;;;;;;;4.40;100.00;93544.56;10530805;28;20044;-74
2020/12/12 23:09:15;;;;;;;28.85;14.32;;;;;;;4.31;100.00;93540.81;10537702;28;20031;-74
2020/12/12 23:14:17;;;;;;;32.97;15.38;;;;;;;4.11;100.00;93548.47;10539439;28;20060;-74
2020/12/12 23:19:17;;;;;;;31.23;15.52;;;;;;;3.94;100.00;93547.91;10531161;28;20036;-74
2020/12/12 23:24:19;;;;;;;36.13;16.85;;;;;;;4.15;100.00;93562.06;10488891;28;20040;-74
2020/12/12 23:29:20;;;;;;;37.10;18.42;;;;;;;4.10;100.00;93562.03;10537031;28;20032;-74
2020/12/12 23:34:20;;;;;;;41.80;23.10;;;;;;;4.16;100.00;93557.53;10554040;28;20050;-74
2020/12/12 23:39:21;;;;;;;42.70;22.43;;;;;;;4.26;100.00;93554.91;10570713;28;20030;-74
2020/12/12 23:44:21;;;;;;;35.37;17.83;;;;;;;4.25;100.00;93553.31;10569950;28;20833;-74